METAR Data
IDs: Format: Raw Decoded Include TAF

Data at: 0247 UTC 25 Feb 2021

SAWE 250200Z 25015KT CAVOK 06/01 Q1000